Time;durP1;ratioP1;P1;durP2;ratioP2;P2;SDS_P1;SDS_P2;PMS_P1;PMS_P2;Temp;Humidity;BMP_temperature;BMP_pressure;BME280_temperature;BME280_humidity;BME280_pressure;Samples;Min_cycle;Max_cycle;Signal;HPM_P1;HPM_P2
2023/05/08 00:02:11;;;;;;;12.73;8.70;;;;;;;;;;5055559;28;20082;-69
2023/05/08 00:04:36;;;;;;;10.53;7.37;;;;;;;;;;5054223;28;20405;-68
2023/05/08 00:07:01;;;;;;;12.00;8.43;;;;;;;;;;5055434;28;20017;-69
2023/05/08 00:09:26;;;;;;;10.20;6.67;;;;;;;;;;5055092;28;20017;-69
2023/05/08 00:11:53;;;;;;;10.13;5.57;;;;;;;;;;5055155;28;20052;-69
2023/05/08 00:14:18;;;;;;;11.77;8.03;;;;;;;;;;5055390;28;20021;-69
2023/05/08 00:16:44;;;;;;;13.07;8.30;;;;;;;;;;5055346;28;20079;-69
2023/05/08 00:19:09;;;;;;;13.10;8.47;;;;;;;;;;5055035;28;20025;-69
2023/05/08 00:21:34;;;;;;;11.87;8.70;;;;;;;;;;5055256;28;20028;-69
2023/05/08 00:24:00;;;;;;;10.77;7.00;;;;;;;;;;5054920;28;20373;-69
2023/05/08 00:26:25;;;;;;;12.90;9.07;;;;;;;;;;5054716;28;20094;-69
2023/05/08 00:28:50;;;;;;;12.87;8.13;;;;;;;;;;5055114;28;20024;-69
2023/05/08 00:31:16;;;;;;;11.43;7.40;;;;;;;;;;5055140;28;20126;-69
2023/05/08 00:33:41;;;;;;;14.17;8.43;;;;;;;;;;5055079;28;20374;-69
2023/05/08 00:36:06;;;;;;;11.93;7.90;;;;;;;;;;5055023;28;20032;-69
2023/05/08 00:38:32;;;;;;;12.20;8.20;;;;;;;;;;5054386;28;20024;-69
2023/05/08 00:40:58;;;;;;;12.00;8.27;;;;;;;;;;5054267;28;20028;-69
2023/05/08 00:43:24;;;;;;;10.67;6.87;;;;;;;;;;5054211;28;20028;-69
2023/05/08 00:45:50;;;;;;;12.30;7.37;;;;;;;;;;5054521;28;20028;-69
2023/05/08 00:48:15;;;;;;;11.00;6.70;;;;;;;;;;5054640;28;20029;-69
2023/05/08 00:50:41;;;;;;;11.77;7.90;;;;;;;;;;5054652;28;20453;-69
2023/05/08 00:53:06;;;;;;;12.67;8.07;;;;;;;;;;5054662;28;20078;-69
2023/05/08 00:55:32;;;;;;;11.87;7.17;;;;;;;;;;5054256;28;20096;-69
2023/05/08 00:57:57;;;;;;;11.03;7.20;;;;;;;;;;5054324;28;20075;-69
2023/05/08 01:03:26;;;;;;;13.37;8.37;;;;;;;;;;5048069;28;20032;-68
2023/05/08 01:05:52;;;;;;;13.03;8.97;;;;;;;;;;5054295;28;20161;-69
2023/05/08 01:08:17;;;;;;;12.40;8.03;;;;;;;;;;5054286;28;20013;-69
2023/05/08 01:10:52;;;;;;;11.60;7.20;;;;;;;;;;5054176;28;20079;-69
2023/05/08 01:13:26;;;;;;;14.00;8.27;;;;;;;;;;5051266;28;20017;-69
2023/05/08 01:15:56;;;;;;;13.77;8.27;;;;;;;;;;5053989;28;20029;-69
2023/05/08 01:18:51;;;;;;;13.70;7.63;;;;;;;;;;5053697;28;20024;-69
2023/05/08 01:21:49;;;;;;;13.80;8.30;;;;;;;;;;4953562;29;20400;-69
2023/05/08 01:24:32;;;;;;;13.67;8.33;;;;;;;;;;4946899;28;20372;-69
2023/05/08 01:27:13;;;;;;;13.17;7.73;;;;;;;;;;4973005;28;20033;-69
2023/05/08 01:30:17;;;;;;;12.82;8.45;;;;;;;;;;4973041;28;20086;-68
2023/05/08 01:32:45;;;;;;;15.27;9.63;;;;;;;;;;4896515;29;20045;-69
2023/05/08 01:35:30;;;;;;;14.63;9.47;;;;;;;;;;4896662;29;20529;-69
2023/05/08 01:38:17;;;;;;;13.70;8.70;;;;;;;;;;4896513;29;20047;-69
2023/05/08 01:40:49;;;;;;;14.03;7.60;;;;;;;;;;4896475;29;20025;-69
2023/05/08 01:43:14;;;;;;;;;;;;;;;;;;4896938;29;20064;-68
2023/05/08 01:45:43;;;;;;;14.03;9.07;;;;;;;;;;4896467;29;20372;-69
2023/05/08 01:48:23;;;;;;;14.30;10.13;;;;;;;;;;4896262;29;20489;-69
2023/05/08 01:50:52;;;;;;;17.97;10.53;;;;;;;;;;4896315;29;20042;-68
2023/05/08 01:53:41;;;;;;;16.50;11.50;;;;;;;;;;4896350;29;20099;-68
2023/05/08 01:56:10;;;;;;;16.33;9.77;;;;;;;;;;4886482;29;20096;-69
2023/05/08 01:58:36;;;;;;;16.50;10.17;;;;;;;;;;4960342;28;20539;-68
2023/05/08 02:01:02;;;;;;;16.40;10.50;;;;;;;;;;4972659;28;20134;-68
2023/05/08 02:03:28;;;;;;;16.97;11.00;;;;;;;;;;5032522;28;20132;-68
2023/05/08 02:05:54;;;;;;;17.17;11.50;;;;;;;;;;5061805;28;20092;-68
2023/05/08 02:08:20;;;;;;;15.07;9.03;;;;;;;;;;5053349;28;20013;-63
2023/05/08 02:10:47;;;;;;;20.20;12.27;;;;;;;;;;5052747;28;20079;-63
2023/05/08 02:13:13;;;;;;;18.97;12.50;;;;;;;;;;5053351;28;20043;-63
2023/05/08 02:15:40;;;;;;;18.43;11.33;;;;;;;;;;5053317;28;20021;-63
2023/05/08 02:18:06;;;;;;;14.30;9.10;;;;;;;;;;5053030;28;20029;-63
2023/05/08 02:20:32;;;;;;;17.63;10.80;;;;;;;;;;5053198;28;20029;-63
2023/05/08 02:22:58;;;;;;;20.40;12.40;;;;;;;;;;5053095;28;20380;-64
2023/05/08 02:25:24;;;;;;;17.97;11.13;;;;;;;;;;5053304;28;20493;-63
2023/05/08 02:27:52;;;;;;;18.50;11.57;;;;;;;;;;5056503;28;20040;-63
2023/05/08 02:30:18;;;;;;;16.80;10.73;;;;;;;;;;5059633;28;20021;-68
2023/05/08 02:32:44;;;;;;;16.77;11.30;;;;;;;;;;5059435;28;20033;-68
2023/05/08 02:35:14;;;;;;;18.70;11.77;;;;;;;;;;5059493;28;20107;-69
2023/05/08 02:37:41;;;;;;;18.83;11.77;;;;;;;;;;5059470;28;20029;-69
2023/05/08 02:40:08;;;;;;;17.50;11.57;;;;;;;;;;5059313;28;20462;-68
2023/05/08 02:42:33;;;;;;;16.60;11.70;;;;;;;;;;5059428;28;20448;-68
2023/05/08 02:44:58;;;;;;;19.53;11.50;;;;;;;;;;5059702;28;20024;-68
2023/05/08 02:47:33;;;;;;;18.10;11.83;;;;;;;;;;5059726;28;20024;-68
2023/05/08 02:50:10;;;;;;;18.43;11.40;;;;;;;;;;5059328;28;20020;-68
2023/05/08 02:52:39;;;;;;;16.47;11.17;;;;;;;;;;5059393;28;20017;-69
2023/05/08 02:55:12;;;;;;;18.80;12.03;;;;;;;;;;5059386;28;20016;-68
2023/05/08 02:57:52;;;;;;;15.90;10.47;;;;;;;;;;5059186;28;20028;-68
2023/05/08 03:00:30;;;;;;;18.20;10.97;;;;;;;;;;5039300;28;20069;-68
2023/05/08 03:02:58;;;;;;;16.57;11.20;;;;;;;;;;5056542;28;20386;-68
2023/05/08 03:05:34;;;;;;;17.97;10.90;;;;;;;;;;5059060;28;20132;-69
2023/05/08 03:08:02;;;;;;;15.50;10.60;;;;;;;;;;5058909;28;20013;-69
2023/05/08 03:10:30;;;;;;;15.77;9.87;;;;;;;;;;5059275;28;20108;-68
2023/05/08 03:12:56;;;;;;;17.03;10.43;;;;;;;;;;5058230;28;20111;-68
2023/05/08 03:15:26;;;;;;;16.67;10.63;;;;;;;;;;5059524;28;20040;-68
2023/05/08 03:17:56;;;;;;;16.57;10.27;;;;;;;;;;5059516;28;20013;-69
2023/05/08 03:20:23;;;;;;;16.03;10.13;;;;;;;;;;5059464;28;20388;-69
2023/05/08 03:22:49;;;;;;;16.90;10.43;;;;;;;;;;5058483;28;20021;-68
2023/05/08 03:25:16;;;;;;;18.03;11.77;;;;;;;;;;5059316;28;20377;-68
2023/05/08 03:27:41;;;;;;;17.60;11.37;;;;;;;;;;5058732;28;20020;-69
2023/05/08 03:30:08;;;;;;;14.87;8.83;;;;;;;;;;5058953;28;20020;-69
2023/05/08 03:32:33;;;;;;;14.57;9.40;;;;;;;;;;5059296;28;20028;-69
2023/05/08 03:35:00;;;;;;;15.67;9.73;;;;;;;;;;5058676;28;20025;-68
2023/05/08 03:37:27;;;;;;;17.13;8.77;;;;;;;;;;5059235;28;20033;-68
2023/05/08 03:39:52;;;;;;;17.27;11.57;;;;;;;;;;5055451;28;20040;-68
2023/05/08 03:42:20;;;;;;;19.47;10.93;;;;;;;;;;5055957;28;20472;-68
2023/05/08 03:44:52;;;;;;;17.97;11.57;;;;;;;;;;5055986;28;20032;-69
2023/05/08 03:47:18;;;;;;;18.53;11.43;;;;;;;;;;5055398;28;20013;-69
2023/05/08 03:49:48;;;;;;;20.30;10.93;;;;;;;;;;5055738;28;20013;-69
2023/05/08 03:52:13;;;;;;;18.33;11.17;;;;;;;;;;5055042;28;20469;-69
2023/05/08 03:54:39;;;;;;;18.23;12.27;;;;;;;;;;5055821;28;20021;-69
2023/05/08 03:57:04;;;;;;;21.40;12.70;;;;;;;;;;5055825;28;20047;-69
2023/05/08 03:59:48;;;;;;;19.10;11.77;;;;;;;;;;5055643;28;20351;-69
2023/05/08 04:02:20;;;;;;;17.53;11.17;;;;;;;;;;5055440;28;20419;-69
2023/05/08 04:04:46;;;;;;;17.57;13.00;;;;;;;;;;5054953;28;20049;-68
2023/05/08 04:07:32;;;;;;;19.63;11.60;;;;;;;;;;5055633;28;20017;-68
2023/05/08 04:10:20;;;;;;;18.47;12.60;;;;;;;;;;5041125;28;20029;-68
2023/05/08 04:13:15;;;;;;;18.63;12.50;;;;;;;;;;5055472;28;20032;-68
2023/05/08 04:15:49;;;;;;;19.33;12.47;;;;;;;;;;5037842;28;20485;-69
2023/05/08 04:18:16;;;;;;;17.57;11.67;;;;;;;;;;5055160;28;20017;-68
2023/05/08 04:20:42;;;;;;;20.03;13.27;;;;;;;;;;5054925;28;20064;-68
2023/05/08 04:23:08;;;;;;;19.37;12.63;;;;;;;;;;5054952;28;20029;-68
2023/05/08 04:25:35;;;;;;;17.47;9.43;;;;;;;;;;5054797;28;20021;-68
2023/05/08 04:28:01;;;;;;;14.70;6.60;;;;;;;;;;5055282;28;20520;-70
2023/05/08 04:30:27;;;;;;;16.17;11.47;;;;;;;;;;5055102;28;20044;-69
2023/05/08 04:32:53;;;;;;;16.47;10.27;;;;;;;;;;5054658;28;20025;-69
2023/05/08 04:35:18;;;;;;;16.17;11.37;;;;;;;;;;5054761;28;20488;-69
2023/05/08 04:37:44;;;;;;;17.03;11.40;;;;;;;;;;5054554;28;20108;-69
2023/05/08 04:40:10;;;;;;;15.20;10.47;;;;;;;;;;5054663;28;20025;-69
2023/05/08 04:42:37;;;;;;;15.77;10.40;;;;;;;;;;5054778;28;20025;-69
2023/05/08 04:45:03;;;;;;;13.77;8.17;;;;;;;;;;5054765;28;20014;-69
2023/05/08 04:47:28;;;;;;;16.07;10.90;;;;;;;;;;5054559;28;20027;-69
2023/05/08 04:49:53;;;;;;;13.80;9.50;;;;;;;;;;5054017;28;20017;-70
2023/05/08 04:52:19;;;;;;;18.57;9.63;;;;;;;;;;5054646;28;20031;-69
2023/05/08 04:54:44;;;;;;;15.50;10.93;;;;;;;;;;5054597;28;20025;-69
2023/05/08 04:57:10;;;;;;;16.40;11.13;;;;;;;;;;5054328;28;20534;-69
2023/05/08 04:59:35;;;;;;;16.20;9.60;;;;;;;;;;5069809;28;20115;-69
2023/05/08 05:02:01;;;;;;;15.23;10.83;;;;;;;;;;5064632;28;20123;-69
2023/05/08 05:04:26;;;;;;;14.73;10.13;;;;;;;;;;5053854;28;20049;-69
2023/05/08 05:06:52;;;;;;;15.47;10.07;;;;;;;;;;5054290;28;20021;-69
2023/05/08 05:09:17;;;;;;;17.93;11.37;;;;;;;;;;5054122;28;20021;-68
2023/05/08 05:11:42;;;;;;;14.57;10.00;;;;;;;;;;5053524;28;20081;-69
2023/05/08 05:14:08;;;;;;;17.07;12.00;;;;;;;;;;5053186;28;20063;-69
2023/05/08 05:16:33;;;;;;;17.70;11.87;;;;;;;;;;5052618;28;20044;-69
2023/05/08 05:18:59;;;;;;;15.87;9.77;;;;;;;;;;5052894;28;20104;-69
2023/05/08 05:21:24;;;;;;;17.03;11.20;;;;;;;;;;5054081;28;20029;-70
2023/05/08 05:23:50;;;;;;;17.83;11.73;;;;;;;;;;5053881;28;20024;-70
2023/05/08 05:26:15;;;;;;;18.00;12.63;;;;;;;;;;5053508;28;20467;-68
2023/05/08 05:28:41;;;;;;;17.50;11.20;;;;;;;;;;5052886;28;20108;-67
2023/05/08 05:31:06;;;;;;;16.37;11.47;;;;;;;;;;5053836;28;20027;-67
2023/05/08 05:33:31;;;;;;;15.60;10.43;;;;;;;;;;5053662;28;20496;-68
2023/05/08 05:35:57;;;;;;;14.07;9.23;;;;;;;;;;5053407;28;20050;-68
2023/05/08 05:38:22;;;;;;;15.37;10.37;;;;;;;;;;5053066;28;20033;-68
2023/05/08 05:40:48;;;;;;;17.93;11.77;;;;;;;;;;5053608;28;20025;-67
2023/05/08 05:43:13;;;;;;;15.23;10.30;;;;;;;;;;5053030;28;20028;-68
2023/05/08 05:45:38;;;;;;;15.27;11.23;;;;;;;;;;5053064;28;20032;-68
2023/05/08 05:48:04;;;;;;;15.80;9.27;;;;;;;;;;5053054;28;20013;-68
2023/05/08 05:50:30;;;;;;;14.40;9.90;;;;;;;;;;5052878;28;20485;-68
2023/05/08 05:52:55;;;;;;;15.27;10.77;;;;;;;;;;5053645;28;20025;-68
2023/05/08 05:55:21;;;;;;;14.50;9.93;;;;;;;;;;5053580;28;20082;-68
2023/05/08 05:57:46;;;;;;;14.87;9.60;;;;;;;;;;5053270;28;20151;-68
2023/05/08 06:00:12;;;;;;;14.07;9.17;;;;;;;;;;5054662;28;20067;-68
2023/05/08 06:02:37;;;;;;;13.90;8.83;;;;;;;;;;5056996;28;20021;-68
2023/05/08 06:05:03;;;;;;;12.93;9.27;;;;;;;;;;5052854;28;20056;-68
2023/05/08 06:07:29;;;;;;;13.63;9.60;;;;;;;;;;5053400;28;20032;-68
2023/05/08 06:09:55;;;;;;;15.57;9.53;;;;;;;;;;5052718;28;20492;-70
2023/05/08 06:12:20;;;;;;;10.03;6.23;;;;;;;;;;5053306;28;20032;-70
2023/05/08 06:14:46;;;;;;;11.70;8.20;;;;;;;;;;5053364;28;20020;-70
2023/05/08 06:17:11;;;;;;;12.37;8.17;;;;;;;;;;5052986;28;20104;-70
2023/05/08 06:19:37;;;;;;;12.40;7.83;;;;;;;;;;5052741;28;20473;-70
2023/05/08 06:22:02;;;;;;;12.33;8.60;;;;;;;;;;5052818;28;20021;-70
2023/05/08 06:24:27;;;;;;;11.03;8.67;;;;;;;;;;5052598;28;20025;-70
2023/05/08 06:26:53;;;;;;;9.90;6.57;;;;;;;;;;5052469;28;20017;-70
2023/05/08 06:29:18;;;;;;;9.93;6.50;;;;;;;;;;5052748;28;20027;-70
2023/05/08 06:31:43;;;;;;;11.70;7.67;;;;;;;;;;5052367;28;20372;-70
2023/05/08 06:34:09;;;;;;;10.87;7.77;;;;;;;;;;5052968;28;20440;-70
2023/05/08 06:36:35;;;;;;;11.53;8.53;;;;;;;;;;5052740;28;20476;-70
2023/05/08 06:39:00;;;;;;;10.20;6.60;;;;;;;;;;5051662;28;20108;-71
2023/05/08 06:41:25;;;;;;;10.47;7.50;;;;;;;;;;5045195;28;20107;-70
2023/05/08 06:43:51;;;;;;;10.13;7.82;;;;;;;;;;5052815;28;20064;-69
2023/05/08 06:46:16;;;;;;;9.48;6.45;;;;;;;;;;5053051;28;20025;-70
2023/05/08 06:48:42;;;;;;;11.07;8.43;;;;;;;;;;5052430;28;20377;-70
2023/05/08 06:51:07;;;;;;;10.40;7.00;;;;;;;;;;5052934;28;20033;-70
2023/05/08 06:53:32;;;;;;;10.25;7.55;;;;;;;;;;5051492;28;20032;-70
2023/05/08 06:55:58;;;;;;;10.68;5.68;;;;;;;;;;5052996;28;20033;-68
2023/05/08 06:58:23;;;;;;;8.75;6.20;;;;;;;;;;5052989;28;20396;-68
2023/05/08 07:00:48;;;;;;;8.93;6.70;;;;;;;;;;5052687;28;20025;-68
2023/05/08 07:03:13;;;;;;;10.05;6.20;;;;;;;;;;5052635;28;20372;-68
2023/05/08 07:05:39;;;;;;;10.40;6.70;;;;;;;;;;5032630;28;20044;-68
2023/05/08 07:08:04;;;;;;;9.77;7.03;;;;;;;;;;5032469;28;20022;-68
2023/05/08 07:10:29;;;;;;;9.48;6.75;;;;;;;;;;5033000;28;20025;-68
2023/05/08 07:12:55;;;;;;;7.88;6.25;;;;;;;;;;5032737;28;20037;-68
2023/05/08 07:15:20;;;;;;;9.25;6.80;;;;;;;;;;5036706;28;20032;-68
2023/05/08 07:17:46;;;;;;;9.52;7.03;;;;;;;;;;5035865;28;20485;-68
2023/05/08 07:20:11;;;;;;;9.32;6.75;;;;;;;;;;5035529;28;20026;-68
2023/05/08 07:22:36;;;;;;;8.45;5.78;;;;;;;;;;5035431;28;20021;-68
2023/05/08 07:25:02;;;;;;;10.95;8.00;;;;;;;;;;5036205;28;20022;-68
2023/05/08 07:27:27;;;;;;;11.48;8.93;;;;;;;;;;5036406;28;20025;-68
2023/05/08 07:29:52;;;;;;;15.02;7.78;;;;;;;;;;5036295;28;20029;-68
2023/05/08 07:32:18;;;;;;;10.00;7.15;;;;;;;;;;5035987;28;20052;-68
2023/05/08 07:34:43;;;;;;;9.75;7.43;;;;;;;;;;5036276;28;20095;-68
2023/05/08 07:37:09;;;;;;;10.77;7.30;;;;;;;;;;5035864;28;20500;-67
2023/05/08 07:39:34;;;;;;;9.73;7.28;;;;;;;;;;5036179;28;20102;-68
2023/05/08 07:42:00;;;;;;;10.10;7.20;;;;;;;;;;5036132;28;20083;-68
2023/05/08 07:44:25;;;;;;;13.98;8.38;;;;;;;;;;5045939;28;20027;-67
2023/05/08 07:46:51;;;;;;;10.48;7.90;;;;;;;;;;5036932;28;20026;-67
2023/05/08 07:49:16;;;;;;;10.05;7.13;;;;;;;;;;5035778;28;20088;-67
2023/05/08 07:51:41;;;;;;;11.40;7.20;;;;;;;;;;5036065;28;20026;-68
2023/05/08 07:54:07;;;;;;;11.32;8.00;;;;;;;;;;5035394;28;20025;-68
2023/05/08 07:56:32;;;;;;;12.02;8.32;;;;;;;;;;5035965;28;20033;-67
2023/05/08 07:58:57;;;;;;;11.07;8.20;;;;;;;;;;5035725;28;20041;-67
2023/05/08 08:01:23;;;;;;;11.23;7.80;;;;;;;;;;5035377;28;20470;-69
2023/05/08 08:03:48;;;;;;;10.95;7.78;;;;;;;;;;5039536;28;20056;-70
2023/05/08 08:06:13;;;;;;;12.38;8.65;;;;;;;;;;5055365;28;20059;-69
2023/05/08 08:08:39;;;;;;;10.75;7.35;;;;;;;;;;5054984;28;20465;-69
2023/05/08 08:11:05;;;;;;;13.07;8.32;;;;;;;;;;5054836;28;20067;-69
2023/05/08 08:13:31;;;;;;;11.90;8.30;;;;;;;;;;5055299;28;20029;-69
2023/05/08 08:15:56;;;;;;;9.85;7.22;;;;;;;;;;5055283;28;20469;-70
2023/05/08 08:18:22;;;;;;;11.02;8.68;;;;;;;;;;5055252;28;20029;-69
2023/05/08 08:20:47;;;;;;;12.63;8.70;;;;;;;;;;5054622;28;20021;-70
2023/05/08 08:23:12;;;;;;;9.93;7.90;;;;;;;;;;5054859;28;20033;-70
2023/05/08 08:25:38;;;;;;;13.48;8.60;;;;;;;;;;5054100;28;20365;-67
2023/05/08 08:28:03;;;;;;;11.52;8.55;;;;;;;;;;5054845;28;20036;-67
2023/05/08 08:30:28;;;;;;;10.23;7.63;;;;;;;;;;5053601;28;20020;-68
2023/05/08 08:32:54;;;;;;;12.63;7.70;;;;;;;;;;5055001;28;20520;-64
2023/05/08 08:35:19;;;;;;;12.95;8.98;;;;;;;;;;5053895;28;20049;-67
2023/05/08 08:37:44;;;;;;;11.52;7.97;;;;;;;;;;5053021;28;20052;-70
2023/05/08 08:40:10;;;;;;;10.98;8.05;;;;;;;;;;5053741;28;20440;-70
2023/05/08 08:42:35;;;;;;;13.75;8.93;;;;;;;;;;5053678;28;20485;-68
2023/05/08 08:45:00;;;;;;;13.75;8.77;;;;;;;;;;5054106;28;20025;-68
2023/05/08 08:47:32;;;;;;;10.10;7.93;;;;;;;;;;5052476;28;20125;-70
2023/05/08 08:50:01;;;;;;;12.57;8.23;;;;;;;;;;5052665;28;20043;-70
2023/05/08 08:52:31;;;;;;;11.27;8.20;;;;;;;;;;5053375;28;20033;-70
2023/05/08 08:54:58;;;;;;;10.35;7.93;;;;;;;;;;5053016;28;20477;-70
2023/05/08 08:57:25;;;;;;;11.98;8.85;;;;;;;;;;5053771;28;20036;-70
2023/05/08 08:59:51;;;;;;;11.32;8.25;;;;;;;;;;5053063;28;20053;-70
2023/05/08 09:02:18;;;;;;;11.38;8.60;;;;;;;;;;5053428;28;20051;-70
2023/05/08 09:04:43;;;;;;;11.02;8.57;;;;;;;;;;5051640;28;21847;-70
2023/05/08 09:07:10;;;;;;;9.60;6.43;;;;;;;;;;5052989;28;20029;-70
2023/05/08 09:09:39;;;;;;;12.60;8.00;;;;;;;;;;5050452;28;20082;-69
2023/05/08 09:12:05;;;;;;;10.82;7.80;;;;;;;;;;5045895;28;20167;-70
2023/05/08 09:14:30;;;;;;;12.02;8.27;;;;;;;;;;5050843;28;20112;-70
2023/05/08 09:16:55;;;;;;;9.93;7.63;;;;;;;;;;5050874;28;20041;-70
2023/05/08 09:19:21;;;;;;;9.52;7.18;;;;;;;;;;5050303;28;20107;-70
2023/05/08 09:21:47;;;;;;;10.80;8.43;;;;;;;;;;5050105;28;20021;-70
2023/05/08 09:24:13;;;;;;;9.55;7.10;;;;;;;;;;5052103;28;20025;-68
2023/05/08 09:26:39;;;;;;;8.95;7.43;;;;;;;;;;5049699;28;20530;-68
2023/05/08 09:29:18;;;;;;;11.05;7.53;;;;;;;;;;5050130;28;20465;-68
2023/05/08 09:31:44;;;;;;;9.35;7.10;;;;;;;;;;5049782;28;20048;-68
2023/05/08 09:34:20;;;;;;;8.73;7.18;;;;;;;;;;5049573;28;20390;-68
2023/05/08 09:36:45;;;;;;;11.13;7.32;;;;;;;;;;5034783;28;20515;-68
2023/05/08 09:39:14;;;;;;;9.60;7.05;;;;;;;;;;5024897;28;20040;-67
2023/05/08 09:41:55;;;;;;;9.95;7.75;;;;;;;;;;5051344;28;20028;-68
2023/05/08 09:44:20;;;;;;;10.57;7.90;;;;;;;;;;5050628;28;20040;-68
2023/05/08 09:46:48;;;;;;;9.10;7.40;;;;;;;;;;5049065;28;20473;-68
2023/05/08 09:49:16;;;;;;;10.00;7.18;;;;;;;;;;5050349;28;20044;-67
2023/05/08 09:51:50;;;;;;;8.68;6.32;;;;;;;;;;5051208;28;20053;-67
2023/05/08 09:54:18;;;;;;;9.77;7.18;;;;;;;;;;5048963;28;20040;-68
2023/05/08 09:56:44;;;;;;;10.25;8.07;;;;;;;;;;5051475;28;20021;-67
2023/05/08 09:59:22;;;;;;;9.88;8.10;;;;;;;;;;5051242;28;20029;-67
2023/05/08 10:01:47;;;;;;;9.77;7.07;;;;;;;;;;5048281;28;20032;-67
2023/05/08 10:04:13;;;;;;;9.48;8.20;;;;;;;;;;5052309;28;20045;-68
2023/05/08 10:06:38;;;;;;;11.30;7.95;;;;;;;;;;5050375;28;20013;-67
2023/05/08 10:09:13;;;;;;;9.85;8.00;;;;;;;;;;5047632;28;20096;-68
2023/05/08 10:11:39;;;;;;;11.15;7.63;;;;;;;;;;5050548;28;20020;-67
2023/05/08 10:14:05;;;;;;;9.35;7.82;;;;;;;;;;5051535;28;20033;-67
2023/05/08 10:16:31;;;;;;;9.30;8.02;;;;;;;;;;5047130;28;20020;-67
2023/05/08 10:19:01;;;;;;;9.25;7.82;;;;;;;;;;5050712;28;20036;-69
2023/05/08 10:21:30;;;;;;;9.40;7.40;;;;;;;;;;5051404;28;20032;-69
2023/05/08 10:23:56;;;;;;;9.68;7.88;;;;;;;;;;5050818;28;20095;-69
2023/05/08 10:26:26;;;;;;;9.35;7.93;;;;;;;;;;5046625;28;20033;-69
2023/05/08 10:28:58;;;;;;;11.98;7.68;;;;;;;;;;5048953;28;20052;-70
2023/05/08 10:31:24;;;;;;;9.95;7.22;;;;;;;;;;5048276;28;20087;-69
2023/05/08 10:33:50;;;;;;;8.68;6.80;;;;;;;;;;5047694;28;20020;-69
2023/05/08 10:36:16;;;;;;;9.65;7.47;;;;;;;;;;5046404;28;20456;-69
2023/05/08 10:38:42;;;;;;;11.98;8.45;;;;;;;;;;5051149;28;20021;-69
2023/05/08 10:41:08;;;;;;;9.43;7.78;;;;;;;;;;5052652;28;20052;-68
2023/05/08 10:43:33;;;;;;;10.27;7.93;;;;;;;;;;5050625;28;20041;-69
2023/05/08 10:46:01;;;;;;;9.57;7.35;;;;;;;;;;5051865;28;20021;-69
2023/05/08 10:48:35;;;;;;;11.23;8.25;;;;;;;;;;5053166;28;20445;-69
2023/05/08 10:51:07;;;;;;;12.20;8.60;;;;;;;;;;5055877;28;20021;-69
2023/05/08 10:53:42;;;;;;;10.82;8.20;;;;;;;;;;5055306;28;20013;-69
2023/05/08 10:56:08;;;;;;;9.60;6.72;;;;;;;;;;5054822;28;20021;-69
2023/05/08 10:58:38;;;;;;;10.20;8.65;;;;;;;;;;5054287;28;20013;-69
2023/05/08 11:01:10;;;;;;;10.57;7.78;;;;;;;;;;5052577;28;20070;-69
2023/05/08 11:03:40;;;;;;;10.25;8.38;;;;;;;;;;5053335;28;20520;-67
2023/05/08 11:06:05;;;;;;;9.85;7.88;;;;;;;;;;5055908;28;20106;-66
2023/05/08 11:08:31;;;;;;;10.40;8.10;;;;;;;;;;5055664;28;20098;-67
2023/05/08 11:11:20;;;;;;;10.43;7.75;;;;;;;;;;5053573;28;20079;-67
2023/05/08 11:13:57;;;;;;;11.05;8.20;;;;;;;;;;5054546;28;20091;-67
2023/05/08 11:16:41;;;;;;;9.15;7.70;;;;;;;;;;5053820;28;20024;-67
2023/05/08 11:19:16;;;;;;;10.05;7.80;;;;;;;;;;5042026;28;20073;-68
2023/05/08 11:22:00;;;;;;;8.95;7.32;;;;;;;;;;5055077;28;20029;-68
2023/05/08 11:24:34;;;;;;;11.68;8.00;;;;;;;;;;5055531;28;20021;-68
2023/05/08 11:26:59;;;;;;;8.50;6.80;;;;;;;;;;5051841;28;20358;-68
2023/05/08 11:29:25;;;;;;;9.23;6.68;;;;;;;;;;5051668;28;20024;-67
2023/05/08 11:31:51;;;;;;;10.52;8.27;;;;;;;;;;5055287;28;20021;-68
2023/05/08 11:34:34;;;;;;;11.02;8.48;;;;;;;;;;5054309;28;20029;-67
2023/05/08 11:37:03;;;;;;;11.32;8.70;;;;;;;;;;5055004;28;20024;-67
2023/05/08 11:39:29;;;;;;;11.23;8.30;;;;;;;;;;5053582;28;20530;-68
2023/05/08 11:41:54;;;;;;;11.73;7.88;;;;;;;;;;5055473;28;20055;-68
2023/05/08 11:44:19;;;;;;;9.93;8.65;;;;;;;;;;5054270;28;20099;-68
2023/05/08 11:46:52;;;;;;;11.30;8.70;;;;;;;;;;5053800;28;20481;-68
2023/05/08 11:49:19;;;;;;;11.70;8.32;;;;;;;;;;5055398;28;20013;-68
2023/05/08 11:51:45;;;;;;;9.90;7.90;;;;;;;;;;5054794;28;20033;-67
2023/05/08 11:54:14;;;;;;;11.45;8.43;;;;;;;;;;5054070;28;20144;-67
2023/05/08 11:56:40;;;;;;;10.73;8.48;;;;;;;;;;5055378;28;20032;-67
2023/05/08 11:59:07;;;;;;;11.35;8.50;;;;;;;;;;5053342;28;20024;-67
2023/05/08 12:01:33;;;;;;;9.77;7.78;;;;;;;;;;5051107;28;20025;-67
2023/05/08 12:03:59;;;;;;;10.73;8.50;;;;;;;;;;5054589;28;20041;-68
2023/05/08 12:06:26;;;;;;;11.70;8.73;;;;;;;;;;5054554;28;20024;-67
2023/05/08 12:08:52;;;;;;;10.98;8.90;;;;;;;;;;5054948;28;20539;-67
2023/05/08 12:11:21;;;;;;;11.50;8.95;;;;;;;;;;5055472;28;20031;-67
2023/05/08 12:13:49;;;;;;;10.93;8.18;;;;;;;;;;5050902;28;20027;-67
2023/05/08 12:16:15;;;;;;;10.95;8.52;;;;;;;;;;5051468;28;20037;-67
2023/05/08 12:18:42;;;;;;;13.13;8.88;;;;;;;;;;5053723;28;20025;-67
2023/05/08 12:21:07;;;;;;;12.50;7.70;;;;;;;;;;5053162;28;20412;-67
2023/05/08 12:23:32;;;;;;;12.95;8.10;;;;;;;;;;5054190;28;20032;-67
2023/05/08 12:25:58;;;;;;;9.48;8.13;;;;;;;;;;5054606;28;20059;-67
2023/05/08 12:28:24;;;;;;;11.43;8.20;;;;;;;;;;5053609;28;20033;-67
2023/05/08 12:30:49;;;;;;;9.73;7.75;;;;;;;;;;5054286;28;20464;-67
2023/05/08 12:33:15;;;;;;;8.63;7.25;;;;;;;;;;5052907;28;20033;-67
2023/05/08 12:35:40;;;;;;;9.13;7.43;;;;;;;;;;5054168;28;20388;-67
2023/05/08 12:38:06;;;;;;;9.48;7.90;;;;;;;;;;5053829;28;20082;-67
2023/05/08 12:40:32;;;;;;;11.63;7.10;;;;;;;;;;5054073;28;20021;-67
2023/05/08 12:43:02;;;;;;;9.38;7.80;;;;;;;;;;5053630;28;20373;-67
2023/05/08 12:45:28;;;;;;;10.80;8.07;;;;;;;;;;5053961;28;20013;-67
2023/05/08 12:47:57;;;;;;;11.80;8.30;;;;;;;;;;5053084;28;20055;-67
2023/05/08 12:50:26;;;;;;;9.52;8.10;;;;;;;;;;5053909;28;20041;-68
2023/05/08 12:52:52;;;;;;;9.88;7.78;;;;;;;;;;5052663;28;20032;-67
2023/05/08 12:55:27;;;;;;;11.55;8.32;;;;;;;;;;5053424;28;20033;-68
2023/05/08 12:58:02;;;;;;;11.93;8.60;;;;;;;;;;5053710;28;20044;-67
2023/05/08 13:00:35;;;;;;;10.45;7.88;;;;;;;;;;5053404;28;20025;-67
2023/05/08 13:03:01;;;;;;;11.63;8.68;;;;;;;;;;5050425;28;20021;-67
2023/05/08 13:05:26;;;;;;;10.77;8.57;;;;;;;;;;5052397;28;20048;-67
2023/05/08 13:07:57;;;;;;;11.20;8.40;;;;;;;;;;5052521;28;20075;-67
2023/05/08 13:10:22;;;;;;;11.68;8.80;;;;;;;;;;5053844;28;20055;-67
2023/05/08 13:12:48;;;;;;;10.30;8.80;;;;;;;;;;5053304;28;20501;-67
2023/05/08 13:15:13;;;;;;;12.05;8.43;;;;;;;;;;5053423;28;20048;-67
2023/05/08 13:17:38;;;;;;;9.23;7.78;;;;;;;;;;5053478;28;20035;-67
2023/05/08 13:20:04;;;;;;;9.57;7.57;;;;;;;;;;5053935;28;20091;-67
2023/05/08 13:22:29;;;;;;;9.23;6.80;;;;;;;;;;5053710;28;20033;-67
2023/05/08 13:24:54;;;;;;;9.48;7.70;;;;;;;;;;5052577;28;20029;-67
2023/05/08 13:27:20;;;;;;;10.35;7.13;;;;;;;;;;5053550;28;20458;-67
2023/05/08 13:29:45;;;;;;;10.10;7.68;;;;;;;;;;5053667;28;20033;-67
2023/05/08 13:32:10;;;;;;;9.77;7.78;;;;;;;;;;5052791;28;20025;-67
2023/05/08 13:34:36;;;;;;;9.75;7.68;;;;;;;;;;5052593;28;20013;-62
2023/05/08 13:37:01;;;;;;;10.38;7.65;;;;;;;;;;5053268;28;20457;-62
2023/05/08 13:39:26;;;;;;;8.63;7.13;;;;;;;;;;5052935;28;20029;-62
2023/05/08 13:41:52;;;;;;;10.65;8.02;;;;;;;;;;5053485;28;20033;-62
2023/05/08 13:44:17;;;;;;;11.02;8.27;;;;;;;;;;5052828;28;20024;-62
2023/05/08 13:46:42;;;;;;;10.13;7.75;;;;;;;;;;5053408;28;20025;-62
2023/05/08 13:49:08;;;;;;;12.95;7.70;;;;;;;;;;5053285;28;20013;-62
2023/05/08 13:51:33;;;;;;;7.72;6.80;;;;;;;;;;5052468;28;20032;-62
2023/05/08 13:53:58;;;;;;;11.05;7.63;;;;;;;;;;5053298;28;20020;-62
2023/05/08 13:56:23;;;;;;;8.73;6.65;;;;;;;;;;5052982;28;20036;-62
2023/05/08 13:58:49;;;;;;;7.95;6.47;;;;;;;;;;5052055;28;20028;-62
2023/05/08 14:01:14;;;;;;;8.75;7.28;;;;;;;;;;5052089;28;20021;-62
2023/05/08 14:03:39;;;;;;;9.15;7.43;;;;;;;;;;5051758;28;20041;-62
2023/05/08 14:06:05;;;;;;;8.18;6.95;;;;;;;;;;5051455;28;20025;-62
2023/05/08 14:08:30;;;;;;;10.00;6.95;;;;;;;;;;5051291;28;20110;-62
2023/05/08 14:10:55;;;;;;;10.18;7.40;;;;;;;;;;5052410;28;20029;-62
2023/05/08 14:13:21;;;;;;;8.40;6.38;;;;;;;;;;5052119;28;20469;-62
2023/05/08 14:15:46;;;;;;;10.80;7.60;;;;;;;;;;5051443;28;20024;-62
2023/05/08 14:18:11;;;;;;;9.82;7.72;;;;;;;;;;5052116;28;20032;-62
2023/05/08 14:20:37;;;;;;;10.65;7.43;;;;;;;;;;5051150;28;20104;-62
2023/05/08 14:23:02;;;;;;;11.93;8.30;;;;;;;;;;5051500;28;20043;-62
2023/05/08 14:25:27;;;;;;;9.52;6.88;;;;;;;;;;5053248;28;20044;-62
2023/05/08 14:27:53;;;;;;;9.50;7.03;;;;;;;;;;5051462;28;20009;-62
2023/05/08 14:30:18;;;;;;;11.88;7.00;;;;;;;;;;5052579;28;20048;-62
2023/05/08 14:32:43;;;;;;;9.45;6.90;;;;;;;;;;5051087;28;20112;-62
2023/05/08 14:35:09;;;;;;;8.63;6.40;;;;;;;;;;5051331;28;20039;-62
2023/05/08 14:37:34;;;;;;;8.68;6.45;;;;;;;;;;5051918;28;20017;-62